createdAt,value
2022-11-09T00:01:21.898Z,59.64
2022-11-09T00:03:49.401Z,60.18
2022-11-09T00:06:16.724Z,60.23
2022-11-09T00:08:44.173Z,60.64
2022-11-09T00:11:12.148Z,60.75
2022-11-09T00:13:41.290Z,60.98
2022-11-09T00:16:10.488Z,61.19
2022-11-09T00:18:39.092Z,60.76
2022-11-09T00:21:12.522Z,61.37
2022-11-09T00:23:39.885Z,60.33
2022-11-09T00:26:09.936Z,60.87
2022-11-09T00:28:37.546Z,60.31
2022-11-09T00:31:07.618Z,60.85
2022-11-09T00:33:35.350Z,60.18
2022-11-09T00:36:08.294Z,60.77
2022-11-09T00:38:36.731Z,60.44
2022-11-09T00:41:06.475Z,60.34
2022-11-09T00:43:34.741Z,60.72
2022-11-09T00:46:02.275Z,59.97
2022-11-09T00:48:30.120Z,60.19
2022-11-09T00:50:58.228Z,59.84
2022-11-09T00:56:15.778Z,59.98
2022-11-09T00:58:43.248Z,60.17
2022-11-09T01:01:13.720Z,60.84
2022-11-09T01:03:44.639Z,60.48
2022-11-09T01:06:17.873Z,61.18
2022-11-09T01:08:46.312Z,60.83
2022-11-09T01:11:17.101Z,60.83
2022-11-09T01:13:44.859Z,60.37
2022-11-09T01:16:19.104Z,60.71
2022-11-09T01:18:46.933Z,61.04
2022-11-09T01:21:16.473Z,60.99
2022-11-09T01:23:44.162Z,60.47
2022-11-09T01:26:13.553Z,60.61
2022-11-09T01:28:41.756Z,60.43
2022-11-09T01:31:13.555Z,60.85
2022-11-09T01:33:41.566Z,60.53
2022-11-09T01:36:11.945Z,60.74
2022-11-09T01:38:39.919Z,60.28
2022-11-09T01:41:15.731Z,60.78
2022-11-09T01:43:43.700Z,60.62
2022-11-09T01:46:26.158Z,60.29
2022-11-09T01:49:08.416Z,60.81
2022-11-09T01:51:54.517Z,61.31
2022-11-09T01:54:28.999Z,61.69
2022-11-09T01:57:00.950Z,61.04
2022-11-09T01:59:33.606Z,61.31
2022-11-09T02:02:01.563Z,60.59
2022-11-09T02:04:50.395Z,60.97
2022-11-09T02:07:19.946Z,60.38
2022-11-09T02:10:01.872Z,60.16
2022-11-09T02:12:34.336Z,60.73
2022-11-09T02:15:07.386Z,60.57
2022-11-09T02:17:45.128Z,60.42
2022-11-09T02:20:15.063Z,60.23
2022-11-09T02:22:42.613Z,60.23
2022-11-09T02:25:11.043Z,60.42
2022-11-09T02:27:41.747Z,60.41
2022-11-09T02:30:10.350Z,60.41
2022-11-09T02:32:37.845Z,60.33
2022-11-09T02:35:05.626Z,60.73
2022-11-09T02:37:50.456Z,61.79
2022-11-09T02:40:23.037Z,60.93
2022-11-09T02:42:50.640Z,60.42
2022-11-09T02:45:18.603Z,60.43
2022-11-09T02:47:46.070Z,60.20
2022-11-09T02:50:20.171Z,61.38
2022-11-09T02:52:47.563Z,60.02
2022-11-09T02:55:16.576Z,60.65
2022-11-09T02:57:44.083Z,60.29
2022-11-09T03:00:14.651Z,60.09
2022-11-09T03:02:43.869Z,60.08
2022-11-09T03:05:12.331Z,60.46
2022-11-09T03:07:42.782Z,60.52
2022-11-09T03:10:10.254Z,60.71
2022-11-09T03:12:38.349Z,60.18
2022-11-09T03:15:10.561Z,60.07
2022-11-09T03:17:42.604Z,60.11
2022-11-09T03:20:11.272Z,60.37
2022-11-09T03:22:39.935Z,60.32
2022-11-09T03:25:07.820Z,60.28
2022-11-09T03:27:35.378Z,60.07
2022-11-09T03:30:03.938Z,60.16
2022-11-09T03:32:31.813Z,59.58
2022-11-09T03:34:59.921Z,59.31
2022-11-09T03:37:27.368Z,59.46
2022-11-09T03:39:54.979Z,59.22
2022-11-09T03:42:22.361Z,59.38
2022-11-09T03:44:50.306Z,59.39
2022-11-09T03:47:17.710Z,58.86
2022-11-09T03:49:45.064Z,58.58
2022-11-09T03:52:12.478Z,58.68
2022-11-09T03:54:39.894Z,58.90
2022-11-09T03:57:07.286Z,58.50
2022-11-09T03:59:34.631Z,58.71
2022-11-09T04:02:02.258Z,58.46
2022-11-09T04:04:29.713Z,58.57
2022-11-09T04:06:57.102Z,58.67
2022-11-09T04:09:24.616Z,57.84
2022-11-09T04:11:51.978Z,58.05
2022-11-09T04:14:19.420Z,58.43
2022-11-09T04:16:46.836Z,57.92
2022-11-09T04:19:14.325Z,58.27
2022-11-09T04:21:41.654Z,58.98
2022-11-09T04:24:09.368Z,58.55
2022-11-09T04:26:36.934Z,58.11
2022-11-09T04:29:04.603Z,58.32
2022-11-09T04:31:32.008Z,58.11
2022-11-09T04:33:59.386Z,57.96
2022-11-09T04:36:26.813Z,57.63
2022-11-09T04:38:54.179Z,58.13
2022-11-09T04:41:21.576Z,57.49
2022-11-09T04:43:49.002Z,57.58
2022-11-09T04:46:16.413Z,57.52
2022-11-09T04:48:44.632Z,57.12
2022-11-09T04:51:12.145Z,57.12
2022-11-09T04:53:40.284Z,56.67
